createdAt,value
2022-08-19T00:01:31.474Z,20.00
2022-08-19T00:03:59.858Z,19.77
2022-08-19T00:06:28.221Z,20.23
2022-08-19T00:08:56.394Z,19.07
2022-08-19T00:11:26.324Z,21.73
2022-08-19T00:13:54.083Z,20.97
2022-08-19T00:16:26.131Z,21.73
2022-08-19T00:18:54.705Z,21.30
2022-08-19T00:21:22.370Z,21.40
2022-08-19T00:23:49.946Z,19.40
2022-08-19T00:26:18.168Z,20.53
2022-08-19T00:28:47.976Z,19.87
2022-08-19T00:31:17.140Z,20.17
2022-08-19T00:33:45.073Z,21.70
2022-08-19T00:36:13.632Z,20.70
2022-08-19T00:38:44.231Z,19.13
2022-08-19T00:41:15.419Z,19.37
2022-08-19T00:43:43.122Z,19.30
2022-08-19T00:46:12.064Z,18.90
2022-08-19T00:48:39.701Z,19.70
2022-08-19T00:51:07.982Z,20.30
2022-08-19T00:53:35.998Z,19.67
2022-08-19T00:56:07.106Z,20.70
2022-08-19T00:58:36.110Z,21.13
2022-08-19T01:01:05.205Z,18.73
2022-08-19T01:03:56.966Z,20.67
2022-08-19T01:06:22.289Z,20.53
2022-08-19T01:08:50.297Z,21.53
2022-08-19T01:11:18.685Z,19.50
2022-08-19T01:13:50.042Z,20.77
2022-08-19T01:16:20.802Z,21.67
2022-08-19T01:18:50.454Z,21.23
2022-08-19T01:21:22.758Z,20.50
2022-08-19T01:23:52.210Z,21.40
2022-08-19T01:26:22.680Z,20.20
2022-08-19T01:28:54.314Z,20.40
2022-08-19T01:31:30.329Z,20.67
2022-08-19T01:34:01.629Z,20.53
2022-08-19T01:36:32.200Z,20.87
2022-08-19T01:39:01.985Z,20.50
2022-08-19T01:41:29.678Z,19.57
2022-08-19T01:44:17.055Z,20.63
2022-08-19T01:46:45.877Z,21.40
2022-08-19T01:49:13.469Z,18.90
2022-08-19T01:51:41.052Z,22.40
2022-08-19T01:54:11.341Z,21.90
2022-08-19T01:56:39.194Z,21.87
2022-08-19T01:59:12.487Z,20.47
2022-08-19T02:01:40.180Z,20.97
2022-08-19T02:04:08.010Z,18.20
2022-08-19T02:06:35.638Z,20.43
2022-08-19T02:09:03.811Z,19.97
2022-08-19T02:11:36.253Z,19.80
2022-08-19T02:14:06.602Z,21.27
2022-08-19T02:16:35.094Z,21.40
2022-08-19T02:19:02.718Z,21.73
2022-08-19T02:21:31.776Z,20.90
2022-08-19T02:23:59.417Z,21.73
2022-08-19T02:26:28.342Z,21.23
2022-08-19T02:28:57.528Z,22.53
2022-08-19T02:31:28.782Z,23.30
2022-08-19T02:33:57.232Z,22.07
2022-08-19T02:36:26.272Z,22.40
2022-08-19T02:38:54.992Z,22.20
2022-08-19T02:41:26.829Z,24.77
2022-08-19T02:44:30.561Z,24.30
2022-08-19T02:46:45.657Z,22.77
2022-08-19T02:49:13.329Z,24.23
2022-08-19T02:51:42.901Z,24.23
2022-08-19T02:54:11.716Z,26.30
2022-08-19T02:56:40.876Z,24.70
2022-08-19T02:59:11.237Z,27.47
2022-08-19T03:01:41.889Z,24.20
2022-08-19T03:04:13.753Z,25.23
2022-08-19T03:06:42.553Z,25.67
2022-08-19T03:09:11.606Z,26.97
2022-08-19T03:11:39.741Z,26.00
2022-08-19T03:14:09.072Z,26.37
2022-08-19T03:16:44.084Z,25.80
2022-08-19T03:19:13.080Z,23.80
2022-08-19T03:21:40.702Z,24.40
2022-08-19T03:24:10.889Z,25.27
2022-08-19T03:26:41.158Z,26.57
2022-08-19T03:29:11.525Z,26.20
2022-08-19T03:31:52.408Z,28.03
2022-08-19T03:34:27.188Z,24.83
2022-08-19T03:36:56.211Z,26.10
2022-08-19T03:39:25.086Z,26.97
2022-08-19T03:42:31.724Z,24.27
2022-08-19T03:44:43.201Z,24.03
2022-08-19T03:47:16.097Z,26.83
2022-08-19T03:49:45.144Z,26.37
2022-08-19T03:52:13.010Z,27.23
2022-08-19T03:54:40.624Z,27.70
2022-08-19T03:57:09.841Z,29.00
2022-08-19T03:59:39.005Z,25.43
2022-08-19T04:02:10.688Z,25.80
2022-08-19T04:04:39.300Z,25.50
2022-08-19T04:07:09.225Z,28.13
2022-08-19T04:09:38.097Z,26.23
2022-08-19T04:12:07.560Z,23.20
2022-08-19T04:14:36.209Z,28.60
2022-08-19T04:17:06.335Z,26.77
2022-08-19T04:19:35.745Z,23.50
2022-08-19T04:22:03.703Z,25.70
2022-08-19T04:24:33.037Z,24.97
2022-08-19T04:27:01.713Z,25.07
2022-08-19T04:29:29.818Z,23.97
2022-08-19T04:31:58.131Z,26.70
2022-08-19T04:34:28.093Z,25.10
2022-08-19T04:36:58.367Z,26.57
2022-08-19T04:39:49.118Z,26.50
2022-08-19T04:42:37.577Z,22.93
2022-08-19T04:45:06.368Z,26.40
2022-08-19T04:47:47.638Z,26.27
2022-08-19T04:50:25.601Z,23.80
2022-08-19T04:52:54.255Z,26.47
2022-08-19T04:55:22.145Z,26.03
2022-08-19T04:57:51.671Z,24.27
2022-08-19T05:00:19.575Z,26.60
2022-08-19T05:02:47.278Z,25.43
2022-08-19T05:05:14.993Z,27.17
2022-08-19T05:07:43.138Z,29.40
2022-08-19T05:10:12.464Z,29.07
2022-08-19T05:12:40.201Z,28.90
2022-08-19T05:15:10.328Z,30.63
2022-08-19T05:17:39.133Z,30.43
2022-08-19T05:20:26.090Z,31.27
2022-08-19T05:22:53.924Z,30.40
2022-08-19T05:25:23.301Z,32.10
2022-08-19T05:27:51.269Z,31.77
2022-08-19T05:30:33.407Z,28.10
2022-08-19T05:33:10.305Z,31.60
2022-08-19T05:35:38.141Z,31.63
2022-08-19T05:38:05.885Z,29.93
2022-08-19T05:40:35.346Z,31.13
2022-08-19T05:43:02.920Z,32.23
2022-08-19T05:45:31.926Z,29.87
2022-08-19T05:48:00.139Z,29.80
2022-08-19T05:50:27.728Z,29.43
2022-08-19T05:52:55.416Z,28.80
2022-08-19T05:55:23.519Z,28.87
2022-08-19T05:57:51.104Z,25.63
2022-08-19T06:00:22.725Z,26.57
2022-08-19T06:02:55.560Z,28.30
2022-08-19T06:05:23.334Z,29.70
2022-08-19T06:07:50.887Z,28.27
2022-08-19T06:10:18.490Z,29.47
2022-08-19T06:12:46.138Z,27.40
2022-08-19T06:15:15.545Z,28.57
2022-08-19T06:17:45.234Z,26.33
2022-08-19T06:20:17.772Z,27.70
2022-08-19T06:22:50.052Z,27.40
2022-08-19T06:25:18.601Z,25.97
2022-08-19T06:28:13.372Z,26.73
2022-08-19T06:30:34.396Z,24.60
2022-08-19T06:33:01.949Z,24.90
2022-08-19T06:35:31.100Z,26.50
2022-08-19T06:37:58.827Z,25.70
2022-08-19T06:40:26.464Z,25.47
2022-08-19T06:42:55.546Z,23.63
2022-08-19T06:45:24.970Z,24.50
2022-08-19T06:47:56.686Z,24.50
2022-08-19T06:50:25.162Z,23.90
2022-08-19T06:52:55.251Z,24.93
2022-08-19T06:55:23.111Z,23.97
2022-08-19T06:57:54.178Z,24.10
2022-08-19T07:00:22.239Z,25.53
2022-08-19T07:02:53.342Z,27.50
2022-08-19T07:05:25.064Z,25.37
2022-08-19T07:07:54.010Z,25.83
2022-08-19T07:10:26.103Z,25.80
2022-08-19T07:12:54.719Z,25.77
2022-08-19T07:15:22.566Z,25.67
2022-08-19T07:17:52.803Z,25.63
2022-08-19T07:20:21.106Z,24.70
2022-08-19T07:22:49.075Z,25.73
2022-08-19T07:25:18.796Z,25.03
2022-08-19T07:27:46.584Z,25.50
2022-08-19T07:30:23.296Z,26.87
2022-08-19T07:32:53.932Z,24.57
2022-08-19T07:35:21.518Z,24.83
2022-08-19T07:37:49.377Z,24.60
2022-08-19T07:40:18.412Z,25.23
2022-08-19T07:42:46.033Z,25.73
2022-08-19T07:45:13.957Z,25.57
2022-08-19T07:47:50.424Z,23.97
2022-08-19T07:50:20.720Z,24.83
2022-08-19T07:52:50.345Z,23.33
2022-08-19T07:55:40.321Z,24.50
2022-08-19T07:58:08.673Z,24.93
2022-08-19T08:00:36.977Z,24.70
2022-08-19T08:03:04.597Z,23.20
2022-08-19T08:05:49.520Z,24.27
2022-08-19T08:08:34.752Z,24.93
2022-08-19T08:11:03.724Z,24.27
2022-08-19T08:13:36.148Z,25.60
2022-08-19T08:16:04.557Z,26.37
2022-08-19T08:18:32.201Z,26.33
2022-08-19T08:21:00.266Z,25.33
2022-08-19T08:23:28.047Z,26.10
2022-08-19T08:25:59.818Z,25.93
2022-08-19T08:28:30.554Z,27.50
2022-08-19T08:30:59.341Z,26.60
2022-08-19T08:33:34.837Z,26.93
2022-08-19T08:36:03.950Z,26.83
2022-08-19T08:38:38.383Z,28.60
2022-08-19T08:41:15.105Z,27.57
2022-08-19T08:43:48.182Z,29.27
2022-08-19T08:46:31.410Z,28.60
2022-08-19T08:49:08.258Z,29.63
2022-08-19T08:54:19.746Z,29.70
2022-08-19T08:56:49.382Z,26.93
2022-08-19T08:59:23.813Z,29.50
2022-08-19T09:01:51.435Z,27.37
2022-08-19T09:04:19.744Z,27.60
2022-08-19T09:06:56.913Z,29.77
2022-08-19T09:09:33.198Z,25.37
2022-08-19T09:12:11.863Z,26.53
2022-08-19T09:14:51.538Z,26.20
2022-08-19T09:17:21.840Z,24.40
2022-08-19T09:19:53.233Z,25.80
2022-08-19T09:22:25.425Z,24.20
2022-08-19T09:24:55.253Z,22.33
2022-08-19T09:27:43.217Z,23.80
2022-08-19T09:30:16.616Z,24.20
2022-08-19T09:32:45.538Z,24.00
2022-08-19T09:35:15.217Z,23.27
2022-08-19T09:37:43.619Z,24.40
2022-08-19T09:40:13.183Z,21.70
2022-08-19T09:42:49.785Z,21.53
2022-08-19T09:45:22.771Z,23.67
2022-08-19T09:47:51.960Z,23.90
2022-08-19T09:50:20.032Z,23.00
2022-08-19T09:52:55.627Z,24.37
2022-08-19T09:55:31.631Z,24.90
2022-08-19T09:58:02.186Z,25.20
2022-08-19T10:00:32.675Z,23.63
2022-08-19T10:03:00.286Z,24.27
2022-08-19T10:05:48.572Z,23.63
2022-08-19T10:08:17.433Z,24.93
2022-08-19T10:10:46.225Z,23.37
2022-08-19T10:13:15.887Z,23.33
2022-08-19T10:15:48.111Z,24.50
2022-08-19T10:18:19.087Z,23.50
2022-08-19T10:20:51.459Z,24.77
2022-08-19T10:23:21.022Z,26.57
2022-08-19T10:25:49.195Z,24.20
2022-08-19T10:28:19.467Z,23.87
2022-08-19T10:30:49.372Z,23.70
2022-08-19T10:33:40.809Z,26.67
2022-08-19T10:36:08.500Z,24.30
2022-08-19T10:38:36.604Z,24.10
2022-08-19T10:41:12.417Z,25.80
2022-08-19T10:43:40.770Z,24.93
2022-08-19T10:46:14.221Z,25.17
2022-08-19T10:48:45.247Z,24.60
2022-08-19T10:51:30.719Z,26.73
2022-08-19T10:53:59.001Z,22.77
2022-08-19T10:56:44.751Z,23.60
2022-08-19T10:59:12.919Z,23.87
2022-08-19T11:01:43.632Z,24.70
2022-08-19T11:04:14.439Z,24.40
2022-08-19T11:06:42.320Z,23.70
2022-08-19T11:09:11.749Z,22.53
2022-08-19T11:11:41.853Z,21.50
2022-08-19T11:14:10.352Z,21.33
2022-08-19T11:16:39.943Z,24.13
2022-08-19T11:19:10.546Z,22.83
2022-08-19T11:21:40.509Z,22.27
2022-08-19T11:24:11.092Z,21.30
2022-08-19T11:26:40.388Z,22.43
2022-08-19T11:29:12.270Z,21.40
2022-08-19T11:31:42.734Z,23.53
2022-08-19T11:34:14.162Z,23.93
2022-08-19T11:36:45.740Z,19.53
2022-08-19T11:39:16.178Z,22.83
2022-08-19T11:41:44.073Z,23.30
2022-08-19T11:44:11.894Z,22.43
2022-08-19T11:46:40.294Z,19.93
2022-08-19T11:49:13.807Z,19.47
2022-08-19T11:51:44.329Z,20.30
2022-08-19T11:54:13.638Z,21.10
2022-08-19T11:56:42.465Z,18.97
2022-08-19T11:59:14.612Z,21.43
2022-08-19T12:01:44.177Z,22.17
2022-08-19T12:04:12.391Z,20.33
2022-08-19T12:06:43.352Z,18.30
2022-08-19T12:09:12.395Z,19.03
2022-08-19T12:11:41.419Z,20.10
2022-08-19T12:14:14.511Z,21.30
2022-08-19T12:16:49.120Z,20.67
2022-08-19T12:19:22.277Z,18.90
2022-08-19T12:21:53.858Z,20.60
2022-08-19T12:24:24.163Z,18.93
2022-08-19T12:26:53.986Z,19.27
2022-08-19T12:29:23.925Z,20.93
2022-08-19T12:31:51.713Z,20.30
2022-08-19T12:34:20.888Z,20.40
2022-08-19T12:36:50.113Z,18.87
2022-08-19T12:39:19.299Z,18.30
2022-08-19T12:41:54.698Z,19.80
2022-08-19T12:44:29.616Z,17.83
2022-08-19T12:47:01.560Z,19.17
2022-08-19T12:49:53.596Z,18.00
2022-08-19T12:52:23.353Z,19.60
2022-08-19T12:54:54.567Z,18.20
2022-08-19T12:57:24.394Z,18.40
2022-08-19T13:00:00.205Z,17.37
2022-08-19T13:02:28.038Z,16.80
2022-08-19T13:04:55.712Z,16.23
2022-08-19T13:07:23.326Z,16.50
2022-08-19T13:09:54.602Z,16.07
2022-08-19T13:12:25.022Z,15.07
2022-08-19T13:14:53.005Z,16.90
2022-08-19T13:17:20.624Z,16.47
2022-08-19T13:19:48.317Z,17.50
2022-08-19T13:22:15.912Z,17.20
2022-08-19T13:24:47.272Z,17.80
2022-08-19T13:27:16.584Z,15.73
2022-08-19T13:30:01.808Z,15.60
2022-08-19T13:32:48.920Z,16.30
2022-08-19T13:35:17.490Z,15.97
2022-08-19T13:37:46.254Z,16.90
2022-08-19T13:40:18.282Z,16.40
2022-08-19T13:42:49.177Z,17.57
2022-08-19T13:45:18.901Z,16.17
2022-08-19T13:47:48.204Z,18.43
2022-08-19T13:50:18.345Z,17.20
2022-08-19T13:52:46.521Z,16.70
2022-08-19T13:55:15.218Z,17.30
2022-08-19T13:57:53.808Z,16.83
2022-08-19T14:00:23.368Z,16.43
2022-08-19T14:02:53.784Z,15.20
2022-08-19T14:05:22.757Z,15.67
2022-08-19T14:07:50.780Z,14.27
2022-08-19T14:10:19.732Z,17.03
2022-08-19T14:12:48.233Z,15.50
2022-08-19T14:15:17.995Z,15.17
2022-08-19T14:17:47.531Z,15.10
2022-08-19T14:20:17.843Z,16.17
2022-08-19T14:22:47.505Z,15.37
2022-08-19T14:25:17.073Z,16.00
2022-08-19T14:27:45.365Z,13.13
2022-08-19T14:30:18.109Z,14.70
2022-08-19T14:32:45.801Z,15.30
2022-08-19T14:35:15.741Z,14.53
2022-08-19T14:37:56.515Z,15.60
2022-08-19T14:40:27.535Z,16.60
2022-08-19T14:43:00.217Z,15.87
2022-08-19T14:45:30.725Z,15.33
2022-08-19T14:48:00.200Z,15.07
2022-08-19T14:50:28.597Z,16.60
2022-08-19T14:53:04.372Z,16.63
2022-08-19T14:55:36.880Z,18.17
2022-08-19T14:58:05.066Z,17.80
2022-08-19T15:00:37.956Z,17.10
2022-08-19T15:03:05.518Z,18.53
2022-08-19T15:05:33.282Z,16.83
2022-08-19T15:08:05.037Z,19.00
2022-08-19T15:10:32.625Z,17.50
2022-08-19T15:13:00.289Z,18.93
2022-08-19T15:15:28.636Z,19.13
2022-08-19T15:18:03.108Z,17.60
2022-08-19T15:20:31.628Z,19.60
2022-08-19T15:22:59.536Z,18.90
2022-08-19T15:25:27.924Z,17.30
2022-08-19T15:27:55.574Z,15.77
2022-08-19T15:30:26.456Z,16.77
2022-08-19T15:32:55.488Z,16.73
2022-08-19T15:35:25.546Z,15.93
2022-08-19T15:37:54.326Z,17.40
2022-08-19T15:40:23.527Z,14.80
2022-08-19T15:42:51.690Z,14.43
2022-08-19T15:45:21.645Z,14.67
2022-08-19T15:47:49.517Z,13.77
2022-08-19T15:50:21.170Z,15.07
2022-08-19T15:52:53.102Z,15.17
2022-08-19T15:55:32.689Z,13.30
2022-08-19T15:58:21.896Z,12.90
2022-08-19T16:01:13.420Z,14.67
2022-08-19T16:04:04.003Z,13.90
2022-08-19T16:06:32.885Z,14.13
2022-08-19T16:09:04.440Z,13.50
2022-08-19T16:11:39.439Z,14.07
2022-08-19T16:14:09.177Z,12.97
2022-08-19T16:16:38.319Z,12.80
2022-08-19T16:19:11.962Z,13.63
2022-08-19T16:21:41.995Z,13.00
2022-08-19T16:24:13.573Z,13.80
2022-08-19T16:26:42.037Z,13.17
2022-08-19T16:29:12.185Z,13.80
2022-08-19T16:31:42.215Z,13.20
2022-08-19T16:34:10.284Z,11.70
2022-08-19T16:36:42.129Z,12.13
2022-08-19T16:39:12.198Z,12.87
2022-08-19T16:41:40.396Z,12.70
2022-08-19T16:44:09.661Z,13.43
2022-08-19T16:46:39.720Z,13.50
2022-08-19T16:49:08.412Z,13.03
2022-08-19T16:51:36.335Z,15.27
2022-08-19T16:54:04.967Z,14.13
2022-08-19T16:56:33.993Z,14.13
2022-08-19T16:59:01.638Z,14.60
2022-08-19T17:01:30.604Z,14.30
2022-08-19T17:03:58.629Z,14.10
2022-08-19T17:06:31.165Z,13.93
2022-08-19T17:09:00.808Z,14.47
2022-08-19T17:11:32.853Z,13.60
2022-08-19T17:14:02.877Z,11.60
2022-08-19T17:16:33.137Z,12.77
2022-08-19T17:19:03.569Z,12.30
2022-08-19T17:21:33.872Z,12.20
2022-08-19T17:24:04.613Z,12.10
2022-08-19T17:26:32.729Z,13.53
2022-08-19T17:29:01.792Z,9.30
2022-08-19T17:31:31.274Z,10.90
2022-08-19T17:33:59.177Z,10.20
2022-08-19T17:36:29.178Z,10.17
2022-08-19T17:38:58.308Z,9.33
2022-08-19T17:41:27.038Z,9.33
2022-08-19T17:43:55.281Z,9.33
2022-08-19T17:46:24.335Z,8.17
2022-08-19T17:48:55.046Z,8.27
2022-08-19T17:51:26.610Z,8.07
2022-08-19T17:53:55.713Z,8.27
2022-08-19T17:56:23.910Z,8.50
2022-08-19T17:59:00.209Z,8.03
2022-08-19T18:01:43.805Z,8.40
2022-08-19T18:04:18.833Z,7.67
2022-08-19T18:06:53.078Z,8.43
2022-08-19T18:09:23.981Z,8.40
2022-08-19T18:11:53.373Z,9.33
2022-08-19T18:14:28.080Z,7.57
2022-08-19T18:17:02.812Z,7.63
2022-08-19T18:19:41.525Z,8.23
2022-08-19T18:22:09.713Z,8.60
2022-08-19T18:24:38.824Z,7.67
2022-08-19T18:27:06.792Z,7.50
2022-08-19T18:29:38.049Z,7.40
2022-08-19T18:32:12.443Z,6.67
2022-08-19T18:34:41.043Z,6.70
2022-08-19T18:37:08.649Z,6.87
2022-08-19T18:39:54.117Z,7.40
2022-08-19T18:42:39.523Z,6.17
2022-08-19T18:45:25.884Z,6.33
2022-08-19T18:48:24.029Z,6.30
2022-08-19T18:50:54.277Z,6.10
2022-08-19T18:53:21.851Z,6.37
2022-08-19T18:55:53.806Z,6.10
2022-08-19T18:58:25.951Z,5.60
2022-08-19T19:00:55.805Z,6.57
2022-08-19T19:03:25.195Z,5.70
2022-08-19T19:05:53.094Z,5.70
2022-08-19T19:08:27.076Z,5.70
2022-08-19T19:10:55.874Z,6.03
2022-08-19T19:13:23.481Z,5.77
2022-08-19T19:15:51.545Z,6.20
2022-08-19T19:18:19.162Z,5.67
2022-08-19T19:20:48.101Z,5.80
2022-08-19T19:23:15.674Z,5.77
2022-08-19T19:25:51.036Z,6.03
2022-08-19T19:28:23.827Z,6.13
2022-08-19T19:30:52.312Z,5.43
2022-08-19T19:33:20.237Z,5.43
2022-08-19T19:35:49.457Z,6.20
2022-08-19T19:38:17.218Z,5.20
2022-08-19T19:40:45.445Z,4.90
2022-08-19T19:43:13.035Z,5.40
2022-08-19T19:45:41.181Z,5.20
2022-08-19T19:48:09.348Z,5.30
2022-08-19T19:50:36.940Z,6.10
2022-08-19T19:53:06.314Z,5.17
2022-08-19T19:55:33.886Z,5.73
2022-08-19T19:58:01.481Z,5.47
2022-08-19T20:00:29.806Z,4.90
2022-08-19T20:02:57.433Z,5.10
2022-08-19T20:05:25.771Z,4.80
2022-08-19T20:08:12.561Z,4.67
2022-08-19T20:10:43.646Z,5.30
2022-08-19T20:13:11.772Z,4.87
2022-08-19T20:15:43.349Z,4.87
2022-08-19T20:18:12.021Z,5.30
2022-08-19T20:20:40.080Z,5.03
2022-08-19T20:23:07.985Z,5.23
2022-08-19T20:25:35.608Z,4.70
2022-08-19T20:28:05.736Z,5.00
2022-08-19T20:30:34.003Z,5.20
2022-08-19T20:33:06.740Z,5.00
2022-08-19T20:35:36.106Z,4.77
2022-08-19T20:38:04.792Z,4.27
2022-08-19T20:40:34.082Z,4.57
2022-08-19T20:43:01.780Z,4.50
2022-08-19T20:45:33.887Z,4.23
2022-08-19T20:48:02.806Z,5.17
2022-08-19T20:50:31.221Z,4.33
2022-08-19T20:52:59.305Z,4.10
2022-08-19T20:55:28.277Z,4.43
2022-08-19T20:57:56.422Z,4.50
2022-08-19T21:00:24.139Z,4.50
2022-08-19T21:02:53.045Z,4.60
2022-08-19T21:05:20.625Z,4.33
2022-08-19T21:07:48.189Z,4.40
2022-08-19T21:10:16.532Z,4.30
2022-08-19T21:12:44.507Z,4.10
2022-08-19T21:15:12.418Z,4.07
2022-08-19T21:17:40.187Z,4.67
2022-08-19T21:20:10.419Z,4.47
2022-08-19T21:22:38.000Z,4.70
2022-08-19T21:25:07.045Z,4.30
2022-08-19T21:27:34.741Z,4.50
2022-08-19T21:30:02.318Z,5.80
2022-08-19T21:32:29.901Z,5.00
2022-08-19T21:34:57.760Z,4.73
2022-08-19T21:37:26.725Z,5.50
2022-08-19T21:39:54.511Z,5.40
2022-08-19T21:42:22.848Z,5.40
2022-08-19T21:44:50.446Z,6.07
2022-08-19T21:47:18.435Z,5.67
2022-08-19T21:49:46.099Z,6.00
2022-08-19T21:52:13.818Z,5.67
2022-08-19T21:54:42.997Z,6.07
2022-08-19T21:57:11.073Z,5.73
2022-08-19T21:59:39.601Z,5.83
2022-08-19T22:02:19.436Z,5.30
2022-08-19T22:04:48.020Z,5.40
2022-08-19T22:07:15.701Z,5.13
2022-08-19T22:09:46.220Z,4.90
2022-08-19T22:12:26.529Z,4.77
2022-08-19T22:14:54.437Z,4.60
2022-08-19T22:17:23.315Z,5.77
2022-08-19T22:19:52.421Z,5.20
2022-08-19T22:22:25.184Z,5.50
2022-08-19T22:24:56.077Z,5.30
2022-08-19T22:27:23.729Z,4.40
2022-08-19T22:29:52.662Z,4.43
2022-08-19T22:32:28.106Z,5.93
2022-08-19T22:34:58.592Z,5.40
2022-08-19T22:37:27.096Z,6.10
2022-08-19T22:39:56.367Z,6.33
2022-08-19T22:42:25.243Z,5.40
2022-08-19T22:45:00.027Z,6.47
2022-08-19T22:47:32.166Z,6.60
2022-08-19T22:50:03.225Z,5.87
2022-08-19T22:52:31.630Z,6.30
2022-08-19T22:55:03.456Z,8.30
2022-08-19T22:57:31.052Z,8.20
2022-08-19T22:59:58.841Z,9.33
2022-08-19T23:02:32.021Z,10.60
2022-08-19T23:05:02.266Z,9.40
2022-08-19T23:07:29.853Z,11.20
2022-08-19T23:09:57.714Z,9.30
2022-08-19T23:12:31.925Z,11.10
2022-08-19T23:15:03.060Z,9.90
2022-08-19T23:17:30.644Z,10.37
2022-08-19T23:19:59.581Z,11.77
2022-08-19T23:22:27.363Z,11.20
2022-08-19T23:24:56.110Z,12.00
2022-08-19T23:27:41.550Z,11.73
2022-08-19T23:30:27.048Z,10.50
2022-08-19T23:32:55.489Z,11.13
2022-08-19T23:35:24.229Z,12.00
2022-08-19T23:37:52.557Z,13.60
2022-08-19T23:40:22.112Z,13.27
2022-08-19T23:42:50.916Z,13.17
2022-08-19T23:45:23.916Z,12.87
2022-08-19T23:47:53.307Z,13.23
2022-08-19T23:50:22.666Z,11.97
2022-08-19T23:52:52.563Z,12.67
2022-08-19T23:55:23.591Z,10.40
2022-08-19T23:57:51.197Z,13.20
